Time;durP1;ratioP1;P1;durP2;ratioP2;P2;SDS_P1;SDS_P2;PMS_P1;PMS_P2;Temp;Humidity;BMP_temperature;BMP_pressure;BME280_temperature;BME280_humidity;BME280_pressure;Samples;Min_cycle;Max_cycle;Signal;HPM_P1;HPM_P2
2023/12/01 00:01:28;;;;;;;0.10;0.10;;;;;;;-1.55;71.26;99948.88;15543392;28;20497;-50
2023/12/01 00:09:03;;;;;;;0.00;0.00;;;;;;;-1.44;71.22;99930.22;15573984;28;20046;-55
2023/12/01 00:16:37;;;;;;;0.00;0.00;;;;;;;-2.39;74.56;99933.41;15550255;28;20046;-50
2023/12/01 00:24:14;;;;;;;0.57;0.57;;;;;;;-1.41;71.44;99945.69;15571746;28;20514;-50
2023/12/01 00:31:47;;;;;;;0.10;0.10;;;;;;;-1.37;71.14;99946.22;15567743;28;20547;-52
2023/12/01 00:39:22;;;;;;;0.28;0.28;;;;;;;-1.34;71.23;99949.38;15576760;28;20097;-56
2023/12/01 00:46:55;;;;;;;0.38;0.38;;;;;;;-1.37;71.35;99957.56;15559456;28;20080;-49
2023/12/01 00:54:30;;;;;;;1.35;1.25;;;;;;;-1.46;72.05;99970.81;15560104;28;20057;-51
2023/12/01 01:02:04;;;;;;;0.30;0.30;;;;;;;-1.33;72.13;99971.28;15544944;28;20062;-51
2023/12/01 01:09:40;;;;;;;0.10;0.10;;;;;;;-1.45;72.39;99970.66;15544717;28;20041;-50
2023/12/01 01:17:15;;;;;;;0.63;0.63;;;;;;;-1.63;72.24;99983.84;15566866;28;20062;-52
2023/12/01 01:24:50;;;;;;;0.08;0.08;;;;;;;-1.85;74.05;99984.28;15545254;28;20070;-52
2023/12/01 01:32:24;;;;;;;1.75;1.65;;;;;;;-1.83;75.11;99985.78;15543420;28;20432;-52
2023/12/01 01:39:59;;;;;;;0.20;0.20;;;;;;;-1.22;74.06;99999.97;15565229;28;20038;-52
2023/12/01 01:47:38;;;;;;;0.08;0.08;;;;;;;-1.06;73.12;99991.38;15564439;28;20478;-52
2023/12/01 01:55:14;;;;;;;1.08;1.08;;;;;;;-1.13;73.23;99982.44;15535243;28;20488;-52
2023/12/01 02:02:47;;;;;;;0.45;0.40;;;;;;;-1.44;72.96;99921.50;15543143;28;20061;-52
2023/12/01 02:10:30;;;;;;;0.55;0.55;;;;;;;-1.46;72.52;99983.97;15546982;28;20445;-51
2023/12/01 02:18:04;;;;;;;0.10;0.10;;;;;;;-1.91;73.29;99984.84;15541913;28;20050;-52
2023/12/01 02:25:40;;;;;;;0.03;0.03;;;;;;;-2.08;73.46;99995.22;15552427;28;20069;-51
2023/12/01 02:33:17;;;;;;;0.10;0.10;;;;;;;-2.20;74.17;99991.13;15543355;28;20046;-52
2023/12/01 02:40:51;;;;;;;1.00;1.00;;;;;;;-2.02;72.83;99979.81;15539043;28;20042;-55
2023/12/01 02:48:25;;;;;;;0.28;0.28;;;;;;;-1.99;72.68;99982.16;15570358;28;20113;-51
2023/12/01 02:56:00;;;;;;;0.17;0.17;;;;;;;-2.38;72.18;99977.94;15522158;28;20461;-50
2023/12/01 03:03:34;;;;;;;0.10;0.10;;;;;;;-2.40;72.96;99987.75;15540326;28;20469;-52
2023/12/01 03:11:09;;;;;;;0.00;0.00;;;;;;;-2.51;72.34;99997.66;15553265;28;20084;-53
2023/12/01 03:18:43;;;;;;;0.65;0.65;;;;;;;-2.69;72.45;100001.03;15548785;28;20046;-54
2023/12/01 03:26:18;;;;;;;0.88;0.82;;;;;;;-2.90;71.95;100009.06;15564562;28;20536;-51
2023/12/01 03:33:53;;;;;;;0.08;0.08;;;;;;;-3.11;72.32;100013.69;15558878;28;20041;-51
2023/12/01 03:41:28;;;;;;;0.00;0.00;;;;;;;-3.38;71.53;100015.22;15545347;28;20046;-50
2023/12/01 03:49:02;;;;;;;0.13;0.13;;;;;;;-3.26;72.77;100023.78;15549129;28;20034;-53
2023/12/01 03:56:37;;;;;;;0.10;0.10;;;;;;;-3.26;72.45;100023.78;15536701;28;20140;-51
2023/12/01 04:04:11;;;;;;;0.20;0.20;;;;;;;-3.31;72.59;100023.38;15527180;28;20568;-53
2023/12/01 04:11:46;;;;;;;0.05;0.05;;;;;;;-3.73;74.16;100028.88;15551383;28;20496;-52
2023/12/01 04:19:20;;;;;;;0.65;0.65;;;;;;;-3.46;72.64;100022.94;15543828;28;20042;-54
2023/12/01 04:26:55;;;;;;;0.00;0.00;;;;;;;-3.64;73.10;100017.56;15550821;28;20049;-52
2023/12/01 04:34:28;;;;;;;1.45;1.17;;;;;;;-4.05;73.50;100030.88;15577444;28;20042;-53
2023/12/01 04:42:04;;;;;;;0.00;0.00;;;;;;;-4.00;73.24;100028.69;15548852;28;20046;-57
2023/12/01 04:49:37;;;;;;;0.00;0.00;;;;;;;-3.87;71.76;99985.53;15551476;28;20048;-53
2023/12/01 04:57:12;;;;;;;0.10;0.10;;;;;;;-3.86;72.22;100038.78;15567359;28;20069;-51
2023/12/01 05:04:47;;;;;;;0.00;0.00;;;;;;;-4.16;73.23;100040.47;15554778;28;20046;-53
2023/12/01 05:12:22;;;;;;;0.00;0.00;;;;;;;-4.45;73.52;100042.16;15557720;28;20104;-51
2023/12/01 05:19:56;;;;;;;0.00;0.00;;;;;;;-4.06;72.34;100040.50;15551887;28;20073;-53
2023/12/01 05:27:30;;;;;;;0.00;0.00;;;;;;;-3.85;72.55;100049.13;15543959;28;20274;-51
2023/12/01 05:35:05;;;;;;;0.00;0.00;;;;;;;-3.80;72.08;100048.72;15555436;28;20042;-53
2023/12/01 05:42:41;;;;;;;0.20;0.20;;;;;;;-3.78;71.67;100019.75;15609880;23;20063;-49
2023/12/01 05:50:21;;;;;;;0.00;0.00;;;;;;;-3.79;72.08;100042.50;15726598;28;20044;-49
2023/12/01 05:57:58;;;;;;;0.17;0.17;;;;;;;-3.19;71.21;100072.13;15644116;28;20076;-47
2023/12/01 06:05:32;;;;;;;0.00;0.00;;;;;;;-3.11;71.14;100069.63;15614608;28;20057;-48
2023/12/01 06:13:07;;;;;;;0.10;0.10;;;;;;;-3.13;71.14;100075.97;15630670;28;20060;-47
2023/12/01 06:20:40;;;;;;;0.00;0.00;;;;;;;-3.53;72.65;100090.06;15618170;28;20120;-50
2023/12/01 06:28:15;;;;;;;0.00;0.00;;;;;;;-3.35;71.76;100100.72;15615173;28;20041;-50
2023/12/01 06:35:49;;;;;;;0.00;0.00;;;;;;;-3.51;72.14;100061.06;15627468;28;20052;-50
2023/12/01 06:43:24;;;;;;;0.93;0.93;;;;;;;-3.38;72.02;100114.09;15661101;28;20049;-46
2023/12/01 06:50:58;;;;;;;0.30;0.30;;;;;;;-3.04;72.76;100114.53;15639647;28;20045;-50
2023/12/01 06:58:32;;;;;;;0.00;0.00;;;;;;;-2.88;72.07;100106.13;15619655;28;20129;-46
2023/12/01 07:06:06;;;;;;;0.00;0.00;;;;;;;-3.12;72.38;100130.16;15617564;28;20520;-53
2023/12/01 07:13:42;;;;;;;0.55;0.55;;;;;;;-3.43;72.73;100145.97;15658257;28;20057;-50
2023/12/01 07:21:17;;;;;;;0.22;0.22;;;;;;;-3.37;72.05;100161.19;15628852;28;20128;-51
2023/12/01 07:28:52;;;;;;;0.10;0.10;;;;;;;-3.31;74.40;100167.72;15608220;28;20459;-47
2023/12/01 07:36:27;;;;;;;0.00;0.00;;;;;;;-2.95;72.14;100178.50;15666029;28;20103;-48
2023/12/01 07:44:06;;;;;;;0.45;0.45;;;;;;;-3.11;73.01;100182.50;15651856;28;20471;-48
2023/12/01 07:51:40;;;;;;;0.40;0.40;;;;;;;-2.70;72.41;100172.72;15635452;28;20128;-48
2023/12/01 07:59:16;;;;;;;0.17;0.17;;;;;;;-2.64;72.83;100194.97;15628639;28;20045;-50
2023/12/01 08:06:50;;;;;;;0.00;0.00;;;;;;;-2.30;71.53;100190.09;15621643;28;20196;-55
2023/12/01 08:14:25;;;;;;;0.40;0.40;;;;;;;-2.67;73.27;100214.47;15632610;28;20049;-47
2023/12/01 08:21:58;;;;;;;0.45;0.45;;;;;;;-2.85;72.71;100214.31;15644295;28;20108;-49
2023/12/01 08:29:32;;;;;;;0.68;0.68;;;;;;;-2.49;72.32;100219.03;15634936;28;20053;-46
2023/12/01 08:37:06;;;;;;;0.10;0.10;;;;;;;-2.67;70.84;100222.34;15638960;28;20142;-50
2023/12/01 08:44:40;;;;;;;1.55;1.45;;;;;;;-3.21;74.56;100223.66;15641313;28;20041;-51
2023/12/01 08:52:14;;;;;;;1.95;1.65;;;;;;;-2.70;72.19;100224.44;15639616;28;20057;-51
2023/12/01 08:59:49;;;;;;;;;;;;;;;-2.24;70.37;100241.28;15625254;28;20640;-46
2023/12/01 09:07:22;;;;;;;0.00;0.00;;;;;;;-2.28;70.20;100253.88;15646476;28;19927;-49
2023/12/01 09:14:56;;;;;;;0.00;0.00;;;;;;;-2.65;71.12;100264.25;15678715;28;20491;-48
2023/12/01 09:22:29;;;;;;;0.10;0.10;;;;;;;-2.61;71.50;100255.97;15679543;28;20283;-46
2023/12/01 09:30:07;;;;;;;0.00;0.00;;;;;;;-1.69;69.22;100268.56;15660077;28;20068;-49
2023/12/01 09:37:40;;;;;;;0.28;0.28;;;;;;;-1.99;68.88;100263.53;15677107;28;20044;-47
2023/12/01 09:45:21;;;;;;;0.08;0.08;;;;;;;-0.75;66.93;100254.41;15676367;28;20041;-50
2023/12/01 09:52:55;;;;;;;0.10;0.10;;;;;;;-0.94;67.37;100255.38;15659403;28;20048;-47
2023/12/01 10:00:30;;;;;;;0.20;0.20;;;;;;;-0.92;67.04;100251.63;15677324;28;20581;-46
2023/12/01 10:08:05;;;;;;;0.08;0.08;;;;;;;-2.26;70.92;100256.38;15676866;28;20535;-46
2023/12/01 10:15:40;;;;;;;0.10;0.10;;;;;;;-1.32;68.21;100237.00;15676520;28;20041;-46
2023/12/01 10:23:18;;;;;;;0.90;0.90;;;;;;;-1.03;66.91;100251.81;15677075;28;20428;-46
2023/12/01 10:30:54;;;;;;;0.13;0.13;;;;;;;-0.75;64.92;100235.97;15658566;28;20044;-47
2023/12/01 10:38:30;;;;;;;0.35;0.35;;;;;;;-1.64;68.02;100249.72;15667571;28;20088;-47
2023/12/01 10:46:07;;;;;;;0.10;0.10;;;;;;;-0.88;64.70;100244.25;15675220;28;20045;-50
2023/12/01 10:53:41;;;;;;;0.00;0.00;;;;;;;0.19;63.22;100238.91;15672476;28;20041;-48
2023/12/01 11:01:16;;;;;;;0.75;0.75;;;;;;;0.62;61.12;100242.44;15643493;28;20095;-46
2023/12/01 11:09:04;;;;;;;0.20;0.20;;;;;;;0.96;59.58;100245.84;15630901;28;20069;-48
2023/12/01 11:16:39;;;;;;;0.35;0.35;;;;;;;2.40;55.30;100240.13;15637708;28;20041;-48
2023/12/01 11:24:26;;;;;;;0.15;0.15;;;;;;;3.55;53.48;100226.16;15623711;28;20056;-50
2023/12/01 11:32:03;;;;;;;0.38;0.38;;;;;;;2.68;53.90;100235.25;15627125;28;20067;-50
2023/12/01 11:39:37;;;;;;;0.63;0.63;;;;;;;4.01;50.80;100228.75;15668063;28;20416;-52
2023/12/01 11:47:14;;;;;;;0.00;0.00;;;;;;;4.40;49.70;100218.91;15738062;23;20053;-55
2023/12/01 11:54:48;;;;;;;0.10;0.10;;;;;;;4.17;50.35;100225.13;15778094;28;20117;-55
2023/12/01 12:02:32;;;;;;;0.25;0.25;;;;;;;5.16;47.61;100227.44;15793041;28;20043;-53
2023/12/01 12:10:08;;;;;;;0.20;0.20;;;;;;;3.73;51.93;100232.97;15793758;28;20075;-53
2023/12/01 12:17:43;;;;;;;0.05;0.05;;;;;;;3.33;51.61;100240.22;15809288;28;20079;-56
2023/12/01 12:25:34;;;;;;;0.20;0.20;;;;;;;4.43;50.58;100245.94;15790179;28;20036;-55
2023/12/01 12:33:10;;;;;;;0.85;0.38;;;;;;;2.96;52.47;100235.63;15783863;28;20102;-54
2023/12/01 12:40:43;;;;;;;0.65;0.65;;;;;;;2.90;52.54;100242.44;15789781;28;20060;-55
2023/12/01 12:48:26;;;;;;;0.20;0.20;;;;;;;0.96;59.39;100248.50;15808487;28;20040;-52
2023/12/01 12:56:09;;;;;;;0.45;0.45;;;;;;;-0.02;60.93;100249.78;15783781;28;20044;-54
2023/12/01 13:03:45;;;;;;;0.00;0.00;;;;;;;-1.48;65.97;100243.88;15803659;28;20070;-52
2023/12/01 13:11:19;;;;;;;0.15;0.15;;;;;;;-2.03;67.52;100273.50;15786997;28;20036;-52
2023/12/01 13:18:53;;;;;;;1.67;1.30;;;;;;;-2.74;69.68;100272.94;15804936;28;20036;-53
2023/12/01 13:26:26;;;;;;;0.20;0.20;;;;;;;-2.87;71.53;100287.16;15807601;28;20036;-54
2023/12/01 13:34:03;;;;;;;0.00;0.00;;;;;;;-2.96;70.71;100293.22;15784468;28;20055;-54
2023/12/01 13:41:37;;;;;;;0.00;0.00;;;;;;;-3.41;72.14;100292.75;15773905;28;20040;-54
2023/12/01 13:49:13;;;;;;;0.00;0.00;;;;;;;-3.67;71.19;100302.88;15806140;28;20083;-55
2023/12/01 13:56:48;;;;;;;0.00;0.00;;;;;;;-3.93;71.29;100316.34;15806195;28;20048;-55
2023/12/01 14:04:22;;;;;;;0.20;0.20;;;;;;;-3.71;72.66;100317.19;15804380;28;20056;-52
2023/12/01 14:11:56;;;;;;;0.00;0.00;;;;;;;-3.28;69.51;100318.78;15791534;28;20460;-57
2023/12/01 14:19:30;;;;;;;0.20;0.20;;;;;;;-3.34;70.47;100314.91;15815313;28;20529;-53
2023/12/01 14:27:05;;;;;;;0.10;0.10;;;;;;;-4.14;73.14;100316.34;15811613;28;20067;-52
2023/12/01 14:34:40;;;;;;;0.00;0.00;;;;;;;-3.61;70.91;100318.91;15804503;28;20076;-52
2023/12/01 14:42:14;;;;;;;0.00;0.00;;;;;;;-3.63;72.05;100326.09;15785398;28;20052;-53
2023/12/01 14:49:51;;;;;;;0.00;0.00;;;;;;;-4.27;73.94;100334.03;15803241;28;20044;-54
2023/12/01 14:57:24;;;;;;;0.00;0.00;;;;;;;-4.94;75.49;100326.38;15783071;28;20040;-52
2023/12/01 15:05:01;;;;;;;0.80;0.80;;;;;;;-4.53;75.05;100319.59;15816642;28;20044;-55
2023/12/01 15:12:35;;;;;;;0.75;0.75;;;;;;;-4.22;73.03;100320.56;15811209;28;20123;-54
2023/12/01 15:20:11;;;;;;;0.00;0.00;;;;;;;-4.19;73.35;100305.44;15817750;28;20044;-50
2023/12/01 15:27:45;;;;;;;0.00;0.00;;;;;;;-4.25;74.80;100334.72;15803378;28;20032;-50
2023/12/01 15:35:22;;;;;;;1.45;0.90;;;;;;;-4.15;75.17;100327.81;15817771;28;20049;-51
2023/12/01 15:42:58;;;;;;;0.00;0.00;;;;;;;-3.93;74.34;100326.00;15797468;28;20040;-51
2023/12/01 15:50:33;;;;;;;0.00;0.00;;;;;;;-3.99;74.95;100334.41;15796504;28;20059;-52
2023/12/01 15:58:06;;;;;;;0.25;0.25;;;;;;;-3.89;74.77;100361.50;15808962;28;20028;-51
2023/12/01 16:05:42;;;;;;;0.00;0.00;;;;;;;-3.98;75.53;100349.16;15791327;28;20113;-49
2023/12/01 16:13:15;;;;;;;0.00;0.00;;;;;;;-4.32;77.72;100358.94;15810411;28;20070;-51
2023/12/01 16:20:52;;;;;;;0.00;0.00;;;;;;;-3.90;76.42;100365.91;15803633;28;20065;-50
2023/12/01 16:28:27;;;;;;;0.00;0.00;;;;;;;-3.92;77.25;100380.09;15742915;28;20055;-54
2023/12/01 16:36:02;;;;;;;0.05;0.05;;;;;;;-3.72;77.02;100381.94;15793450;28;20139;-50
2023/12/01 16:43:36;;;;;;;0.00;0.00;;;;;;;-2.98;74.62;100389.69;15779285;28;20047;-49
2023/12/01 16:51:12;;;;;;;0.00;0.00;;;;;;;-3.62;75.98;100395.94;15787843;28;20410;-49
2023/12/01 16:58:46;;;;;;;0.00;0.00;;;;;;;-3.16;74.83;100378.94;15800092;28;20860;-48
2023/12/01 17:06:20;;;;;;;0.00;0.00;;;;;;;-2.95;73.58;100386.78;15801028;28;20067;-52
2023/12/01 17:13:54;;;;;;;0.10;0.10;;;;;;;-3.16;74.67;100402.56;15799951;28;20088;-52
2023/12/01 17:21:33;;;;;;;0.70;0.70;;;;;;;-3.50;75.21;100398.47;15806334;28;20120;-54
2023/12/01 17:29:06;;;;;;;0.00;0.00;;;;;;;-3.77;76.27;100414.75;15791099;28;20032;-50
2023/12/01 17:36:41;;;;;;;0.10;0.10;;;;;;;-3.89;77.36;100391.19;15807761;28;20036;-51
2023/12/01 17:44:14;;;;;;;1.25;1.10;;;;;;;-3.83;77.25;100396.88;15789177;28;20050;-53
2023/12/01 17:51:50;;;;;;;0.00;0.00;;;;;;;-3.79;76.37;100396.50;15806622;28;20044;-54
2023/12/01 17:59:23;;;;;;;0.00;0.00;;;;;;;-3.82;75.94;100395.91;15788154;28;20128;-52
2023/12/01 18:06:58;;;;;;;0.00;0.00;;;;;;;-4.02;77.43;100377.41;15771776;28;20044;-55
2023/12/01 18:14:31;;;;;;;0.00;0.00;;;;;;;-3.44;74.99;100390.13;15807315;28;20040;-56
2023/12/01 18:22:06;;;;;;;0.10;0.10;;;;;;;-3.19;74.42;100400.19;15792164;28;20036;-53
2023/12/01 18:29:40;;;;;;;0.13;0.13;;;;;;;-3.36;74.78;100396.41;15793618;28;20516;-54
2023/12/01 18:37:14;;;;;;;0.00;0.00;;;;;;;-4.07;77.00;100389.22;15779398;28;20564;-53
2023/12/01 18:44:53;;;;;;;0.10;0.10;;;;;;;-3.93;78.58;100428.25;15776836;28;20052;-55
2023/12/01 18:52:28;;;;;;;0.00;0.00;;;;;;;-3.88;76.63;100415.59;15793885;28;20059;-54
2023/12/01 19:00:01;;;;;;;1.20;1.20;;;;;;;-3.86;77.67;100406.66;15751857;28;20086;-53
2023/12/01 19:07:37;;;;;;;1.77;0.95;;;;;;;-4.22;79.03;100407.84;15793706;28;20039;-52
2023/12/01 19:15:12;;;;;;;0.00;0.00;;;;;;;-4.12;77.39;100421.88;15775553;28;20139;-54
2023/12/01 19:22:47;;;;;;;0.00;0.00;;;;;;;-4.16;77.94;100402.13;15799101;28;20040;-54
2023/12/01 19:30:21;;;;;;;0.00;0.00;;;;;;;-3.51;74.99;100395.03;15782429;28;20699;-54
2023/12/01 19:37:56;;;;;;;0.00;0.00;;;;;;;-3.85;76.45;100420.59;15781449;28;20040;-51
2023/12/01 19:45:29;;;;;;;0.08;0.08;;;;;;;-3.43;76.45;100381.28;15776889;28;20052;-51
2023/12/01 19:53:03;;;;;;;0.00;0.00;;;;;;;-3.40;74.24;100376.63;15797348;28;20044;-51
2023/12/01 20:00:37;;;;;;;0.05;0.05;;;;;;;-3.38;75.93;100392.22;15810626;28;20059;-52
2023/12/01 20:08:12;;;;;;;0.00;0.00;;;;;;;-3.55;75.43;100404.13;15813827;28;20028;-52
2023/12/01 20:15:46;;;;;;;0.50;0.50;;;;;;;-3.39;75.55;100401.88;15789279;28;20066;-51
2023/12/01 20:23:20;;;;;;;0.10;0.10;;;;;;;-3.73;76.25;100432.72;15803445;28;20044;-56
2023/12/01 20:30:54;;;;;;;0.00;0.00;;;;;;;-3.06;74.67;100413.13;15802466;28;20036;-52
2023/12/01 20:38:29;;;;;;;0.00;0.00;;;;;;;-3.60;76.98;100409.75;15807356;28;20082;-54
2023/12/01 20:46:04;;;;;;;0.00;0.00;;;;;;;-4.62;78.99;100428.53;15798280;28;20044;-53
2023/12/01 20:53:39;;;;;;;0.10;0.10;;;;;;;-3.31;76.00;100431.88;15807615;28;20093;-52
2023/12/01 21:01:14;;;;;;;0.10;0.10;;;;;;;-3.21;76.26;100430.19;15798987;28;20036;-54
2023/12/01 21:08:49;;;;;;;0.10;0.10;;;;;;;-3.81;77.07;100437.75;15807232;28;20044;-54
2023/12/01 21:16:23;;;;;;;0.00;0.00;;;;;;;-3.30;76.58;100457.19;15807665;28;20510;-51
2023/12/01 21:23:58;;;;;;;1.67;1.55;;;;;;;-3.55;76.34;100447.88;15808821;28;20043;-53
2023/12/01 21:31:31;;;;;;;0.00;0.00;;;;;;;-4.21;78.45;100461.94;15807655;28;20066;-51
2023/12/01 21:39:06;;;;;;;0.10;0.10;;;;;;;-3.55;76.75;100448.72;15781912;28;20036;-52
2023/12/01 21:46:40;;;;;;;0.38;0.38;;;;;;;-3.95;78.13;100443.28;15806840;28;20076;-54
2023/12/01 21:54:14;;;;;;;0.00;0.00;;;;;;;-4.84;79.17;100400.59;15801137;28;20108;-49
2023/12/01 22:01:48;;;;;;;0.13;0.13;;;;;;;-4.41;79.42;100454.81;15801323;28;20482;-53
2023/12/01 22:09:28;;;;;;;0.05;0.05;;;;;;;-3.99;77.97;100449.72;15782730;28;20039;-52
2023/12/01 22:17:01;;;;;;;0.00;0.00;;;;;;;-3.91;78.81;100429.81;15780804;28;20036;-51
2023/12/01 22:24:38;;;;;;;0.00;0.00;;;;;;;-3.92;76.82;100429.91;15798964;28;20042;-51
2023/12/01 22:32:13;;;;;;;0.00;0.00;;;;;;;-3.81;76.27;100445.63;15798400;28;20040;-54
2023/12/01 22:39:48;;;;;;;0.03;0.03;;;;;;;-3.59;76.37;100449.94;15796988;28;20044;-53
2023/12/01 22:47:21;;;;;;;0.00;0.00;;;;;;;-4.01;76.24;100449.88;15797503;28;20116;-53
2023/12/01 22:54:56;;;;;;;0.00;0.00;;;;;;;-3.64;76.59;100457.34;15797272;28;20196;-53
2023/12/01 23:02:30;;;;;;;0.03;0.03;;;;;;;-4.31;78.54;100465.41;15796605;28;20406;-53
2023/12/01 23:10:05;;;;;;;0.00;0.00;;;;;;;-3.83;76.43;100457.19;15762734;28;20040;-52
2023/12/01 23:17:38;;;;;;;0.00;0.00;;;;;;;-3.91;77.65;100468.31;15797385;28;20097;-53
2023/12/01 23:25:13;;;;;;;0.00;0.00;;;;;;;-3.79;76.36;100461.22;15802716;28;20454;-52
2023/12/01 23:32:47;;;;;;;0.13;0.13;;;;;;;-3.91;76.54;100458.66;15809596;28;20126;-54
2023/12/01 23:40:25;;;;;;;0.00;0.00;;;;;;;-4.47;78.55;100453.53;15773614;28;20040;-51
2023/12/01 23:47:58;;;;;;;0.08;0.08;;;;;;;-4.56;77.68;100442.94;15678054;22;20041;-49
2023/12/01 23:55:33;;;;;;;0.10;0.10;;;;;;;-4.73;79.05;100437.22;15620094;28;20045;-48
